sensor_id;sensor_type;location;lat;lon;timestamp;P1;durP1;ratioP1;P2;durP2;ratioP2
15295;SDS011;7749;49.964;7.890;2023-06-19T00:00:35;5.97;;;5.47;;
15295;SDS011;7749;49.964;7.890;2023-06-19T00:03:03;5.70;;;5.25;;
15295;SDS011;7749;49.964;7.890;2023-06-19T00:05:30;5.82;;;5.32;;
15295;SDS011;7749;49.964;7.890;2023-06-19T00:07:58;6.75;;;5.43;;
15295;SDS011;7749;49.964;7.890;2023-06-19T00:10:25;7.28;;;5.75;;
15295;SDS011;7749;49.964;7.890;2023-06-19T00:12:53;5.55;;;5.15;;
15295;SDS011;7749;49.964;7.890;2023-06-19T00:15:20;6.03;;;5.53;;
15295;SDS011;7749;49.964;7.890;2023-06-19T00:17:48;7.32;;;6.30;;
15295;SDS011;7749;49.964;7.890;2023-06-19T00:20:15;6.55;;;5.95;;
15295;SDS011;7749;49.964;7.890;2023-06-19T00:22:44;6.50;;;5.85;;
15295;SDS011;7749;49.964;7.890;2023-06-19T00:25:18;6.03;;;5.45;;
15295;SDS011;7749;49.964;7.890;2023-06-19T00:27:47;5.85;;;5.30;;
15295;SDS011;7749;49.964;7.890;2023-06-19T00:30:15;6.53;;;6.03;;
15295;SDS011;7749;49.964;7.890;2023-06-19T00:32:42;6.57;;;5.70;;
15295;SDS011;7749;49.964;7.890;2023-06-19T00:35:14;6.13;;;5.60;;
15295;SDS011;7749;49.964;7.890;2023-06-19T00:37:45;5.65;;;5.18;;
15295;SDS011;7749;49.964;7.890;2023-06-19T00:40:16;6.43;;;5.82;;
15295;SDS011;7749;49.964;7.890;2023-06-19T00:42:53;5.90;;;5.47;;
15295;SDS011;7749;49.964;7.890;2023-06-19T00:45:20;5.82;;;5.18;;
15295;SDS011;7749;49.964;7.890;2023-06-19T00:47:48;6.72;;;6.03;;
15295;SDS011;7749;49.964;7.890;2023-06-19T00:50:15;6.22;;;5.72;;
15295;SDS011;7749;49.964;7.890;2023-06-19T00:52:43;6.22;;;5.63;;
15295;SDS011;7749;49.964;7.890;2023-06-19T00:55:11;5.38;;;4.97;;
15295;SDS011;7749;49.964;7.890;2023-06-19T00:57:40;6.00;;;5.50;;
15295;SDS011;7749;49.964;7.890;2023-06-19T01:00:08;6.63;;;5.80;;
15295;SDS011;7749;49.964;7.890;2023-06-19T01:02:38;6.20;;;5.40;;
15295;SDS011;7749;49.964;7.890;2023-06-19T01:05:06;6.53;;;5.93;;
15295;SDS011;7749;49.964;7.890;2023-06-19T01:10:11;6.40;;;5.90;;
15295;SDS011;7749;49.964;7.890;2023-06-19T01:13:44;6.22;;;5.63;;
15295;SDS011;7749;49.964;7.890;2023-06-19T01:15:50;5.85;;;5.43;;
15295;SDS011;7749;49.964;7.890;2023-06-19T01:18:19;6.45;;;5.85;;
15295;SDS011;7749;49.964;7.890;2023-06-19T01:20:48;6.00;;;5.50;;
15295;SDS011;7749;49.964;7.890;2023-06-19T01:23:16;5.95;;;5.45;;
15295;SDS011;7749;49.964;7.890;2023-06-19T01:25:43;6.15;;;5.65;;
15295;SDS011;7749;49.964;7.890;2023-06-19T01:28:12;5.95;;;5.45;;
15295;SDS011;7749;49.964;7.890;2023-06-19T01:30:40;6.63;;;6.03;;
15295;SDS011;7749;49.964;7.890;2023-06-19T01:33:11;6.40;;;5.70;;
15295;SDS011;7749;49.964;7.890;2023-06-19T01:35:44;7.45;;;6.20;;
15295;SDS011;7749;49.964;7.890;2023-06-19T01:38:14;6.63;;;6.03;;
15295;SDS011;7749;49.964;7.890;2023-06-19T01:40:43;6.45;;;5.88;;
15295;SDS011;7749;49.964;7.890;2023-06-19T01:43:12;6.30;;;5.70;;
15295;SDS011;7749;49.964;7.890;2023-06-19T01:45:39;5.85;;;5.43;;
15295;SDS011;7749;49.964;7.890;2023-06-19T01:48:07;6.30;;;5.60;;
15295;SDS011;7749;49.964;7.890;2023-06-19T01:50:35;6.53;;;6.03;;
15295;SDS011;7749;49.964;7.890;2023-06-19T01:53:03;7.32;;;6.65;;
15295;SDS011;7749;49.964;7.890;2023-06-19T01:55:30;6.80;;;6.20;;
15295;SDS011;7749;49.964;7.890;2023-06-19T01:57:58;8.93;;;5.80;;
15295;SDS011;7749;49.964;7.890;2023-06-19T02:00:25;7.40;;;6.70;;
15295;SDS011;7749;49.964;7.890;2023-06-19T02:02:53;6.80;;;6.10;;
15295;SDS011;7749;49.964;7.890;2023-06-19T02:05:21;6.80;;;6.20;;
15295;SDS011;7749;49.964;7.890;2023-06-19T02:07:48;6.60;;;6.00;;
15295;SDS011;7749;49.964;7.890;2023-06-19T02:10:16;7.38;;;6.68;;
15295;SDS011;7749;49.964;7.890;2023-06-19T02:12:43;6.82;;;6.22;;
15295;SDS011;7749;49.964;7.890;2023-06-19T02:15:10;6.75;;;6.22;;
15295;SDS011;7749;49.964;7.890;2023-06-19T02:17:38;7.20;;;6.60;;
15295;SDS011;7749;49.964;7.890;2023-06-19T02:20:06;6.93;;;6.32;;
15295;SDS011;7749;49.964;7.890;2023-06-19T02:22:35;7.95;;;6.85;;
15295;SDS011;7749;49.964;7.890;2023-06-19T02:25:05;6.80;;;6.20;;
15295;SDS011;7749;49.964;7.890;2023-06-19T02:27:33;7.13;;;6.60;;
15295;SDS011;7749;49.964;7.890;2023-06-19T02:30:00;6.53;;;5.93;;
15295;SDS011;7749;49.964;7.890;2023-06-19T02:32:27;7.13;;;6.53;;
15295;SDS011;7749;49.964;7.890;2023-06-19T02:34:55;7.78;;;6.65;;
15295;SDS011;7749;49.964;7.890;2023-06-19T02:37:23;7.65;;;6.30;;
15295;SDS011;7749;49.964;7.890;2023-06-19T02:39:50;6.95;;;6.30;;
15295;SDS011;7749;49.964;7.890;2023-06-19T02:42:17;7.32;;;6.68;;
15295;SDS011;7749;49.964;7.890;2023-06-19T02:44:45;7.32;;;6.63;;
15295;SDS011;7749;49.964;7.890;2023-06-19T02:47:12;6.70;;;6.10;;
15295;SDS011;7749;49.964;7.890;2023-06-19T02:49:40;7.60;;;6.82;;
15295;SDS011;7749;49.964;7.890;2023-06-19T02:52:07;7.72;;;6.82;;
15295;SDS011;7749;49.964;7.890;2023-06-19T02:54:35;7.28;;;6.68;;
15295;SDS011;7749;49.964;7.890;2023-06-19T02:57:02;7.22;;;6.50;;
15295;SDS011;7749;49.964;7.890;2023-06-19T02:59:30;6.35;;;5.85;;
15295;SDS011;7749;49.964;7.890;2023-06-19T03:01:57;6.85;;;6.25;;
15295;SDS011;7749;49.964;7.890;2023-06-19T03:04:25;7.03;;;6.43;;
15295;SDS011;7749;49.964;7.890;2023-06-19T03:06:55;7.10;;;6.45;;
15295;SDS011;7749;49.964;7.890;2023-06-19T03:09:22;6.70;;;6.13;;
15295;SDS011;7749;49.964;7.890;2023-06-19T03:11:50;7.70;;;6.90;;
15295;SDS011;7749;49.964;7.890;2023-06-19T03:14:17;7.38;;;6.45;;
15295;SDS011;7749;49.964;7.890;2023-06-19T03:16:45;7.50;;;6.80;;
15295;SDS011;7749;49.964;7.890;2023-06-19T03:19:12;7.35;;;6.65;;
15295;SDS011;7749;49.964;7.890;2023-06-19T03:21:40;6.63;;;6.10;;
15295;SDS011;7749;49.964;7.890;2023-06-19T03:24:07;6.38;;;5.78;;
15295;SDS011;7749;49.964;7.890;2023-06-19T03:26:35;6.45;;;5.47;;
15295;SDS011;7749;49.964;7.890;2023-06-19T03:29:02;5.80;;;5.30;;
15295;SDS011;7749;49.964;7.890;2023-06-19T03:31:29;5.22;;;4.82;;
15295;SDS011;7749;49.964;7.890;2023-06-19T03:33:58;6.00;;;5.30;;
15295;SDS011;7749;49.964;7.890;2023-06-19T03:36:25;5.38;;;4.82;;
15295;SDS011;7749;49.964;7.890;2023-06-19T03:38:53;4.63;;;4.30;;
15295;SDS011;7749;49.964;7.890;2023-06-19T03:41:23;5.22;;;4.43;;
15295;SDS011;7749;49.964;7.890;2023-06-19T03:43:50;4.97;;;4.50;;
15295;SDS011;7749;49.964;7.890;2023-06-19T03:46:18;4.78;;;4.38;;
15295;SDS011;7749;49.964;7.890;2023-06-19T03:48:45;4.72;;;4.32;;
15295;SDS011;7749;49.964;7.890;2023-06-19T03:51:13;4.43;;;4.10;;
15295;SDS011;7749;49.964;7.890;2023-06-19T03:53:41;4.65;;;4.00;;
15295;SDS011;7749;49.964;7.890;2023-06-19T03:56:09;4.00;;;3.70;;
15295;SDS011;7749;49.964;7.890;2023-06-19T03:58:36;4.22;;;3.90;;
15295;SDS011;7749;49.964;7.890;2023-06-19T04:01:04;4.72;;;4.05;;
15295;SDS011;7749;49.964;7.890;2023-06-19T04:03:32;4.68;;;3.90;;
15295;SDS011;7749;49.964;7.890;2023-06-19T04:06:00;4.05;;;3.75;;
15295;SDS011;7749;49.964;7.890;2023-06-19T04:08:27;5.10;;;4.25;;
15295;SDS011;7749;49.964;7.890;2023-06-19T04:10:54;5.00;;;4.13;;
15295;SDS011;7749;49.964;7.890;2023-06-19T04:13:22;4.10;;;3.60;;
15295;SDS011;7749;49.964;7.890;2023-06-19T04:15:49;4.40;;;4.07;;
15295;SDS011;7749;49.964;7.890;2023-06-19T04:18:17;4.32;;;3.95;;
15295;SDS011;7749;49.964;7.890;2023-06-19T04:20:45;4.50;;;3.88;;
15295;SDS011;7749;49.964;7.890;2023-06-19T04:23:12;4.50;;;3.88;;
15295;SDS011;7749;49.964;7.890;2023-06-19T04:25:40;4.00;;;3.70;;
15295;SDS011;7749;49.964;7.890;2023-06-19T04:28:07;4.30;;;3.55;;
15295;SDS011;7749;49.964;7.890;2023-06-19T04:30:35;4.75;;;3.40;;
15295;SDS011;7749;49.964;7.890;2023-06-19T04:33:02;3.40;;;3.10;;
15295;SDS011;7749;49.964;7.890;2023-06-19T04:35:31;4.22;;;3.42;;
15295;SDS011;7749;49.964;7.890;2023-06-19T04:37:59;3.65;;;3.17;;
15295;SDS011;7749;49.964;7.890;2023-06-19T04:40:27;3.40;;;3.10;;
15295;SDS011;7749;49.964;7.890;2023-06-19T04:42:55;3.60;;;3.20;;
15295;SDS011;7749;49.964;7.890;2023-06-19T04:45:22;3.88;;;3.33;;
15295;SDS011;7749;49.964;7.890;2023-06-19T04:47:50;4.65;;;3.08;;
15295;SDS011;7749;49.964;7.890;2023-06-19T04:50:20;3.35;;;3.05;;
15295;SDS011;7749;49.964;7.890;2023-06-19T04:52:49;4.05;;;3.10;;
15295;SDS011;7749;49.964;7.890;2023-06-19T04:55:18;4.20;;;3.45;;
15295;SDS011;7749;49.964;7.890;2023-06-19T04:57:45;5.38;;;3.85;;
15295;SDS011;7749;49.964;7.890;2023-06-19T05:00:13;3.60;;;3.00;;
15295;SDS011;7749;49.964;7.890;2023-06-19T05:02:42;4.05;;;3.60;;
15295;SDS011;7749;49.964;7.890;2023-06-19T05:07:57;4.25;;;3.70;;
15295;SDS011;7749;49.964;7.890;2023-06-19T05:10:24;4.43;;;4.03;;
15295;SDS011;7749;49.964;7.890;2023-06-19T05:12:52;4.00;;;3.55;;
15295;SDS011;7749;49.964;7.890;2023-06-19T05:15:19;5.72;;;3.90;;
15295;SDS011;7749;49.964;7.890;2023-06-19T05:17:47;3.67;;;3.38;;
15295;SDS011;7749;49.964;7.890;2023-06-19T05:20:15;5.22;;;3.95;;
15295;SDS011;7749;49.964;7.890;2023-06-19T05:22:42;5.30;;;3.58;;
15295;SDS011;7749;49.964;7.890;2023-06-19T05:25:10;3.97;;;3.67;;
15295;SDS011;7749;49.964;7.890;2023-06-19T05:27:37;3.53;;;3.28;;
15295;SDS011;7749;49.964;7.890;2023-06-19T05:30:05;3.80;;;3.40;;
15295;SDS011;7749;49.964;7.890;2023-06-19T05:32:32;4.32;;;3.38;;
15295;SDS011;7749;49.964;7.890;2023-06-19T05:35:00;4.43;;;3.70;;
15295;SDS011;7749;49.964;7.890;2023-06-19T05:37:28;3.75;;;3.45;;
15295;SDS011;7749;49.964;7.890;2023-06-19T05:39:55;5.30;;;3.38;;
15295;SDS011;7749;49.964;7.890;2023-06-19T05:42:24;3.53;;;3.22;;
15295;SDS011;7749;49.964;7.890;2023-06-19T05:44:51;3.83;;;3.47;;
15295;SDS011;7749;49.964;7.890;2023-06-19T05:47:18;3.80;;;3.50;;
15295;SDS011;7749;49.964;7.890;2023-06-19T05:49:47;4.28;;;3.35;;
15295;SDS011;7749;49.964;7.890;2023-06-19T05:52:15;6.40;;;3.72;;
15295;SDS011;7749;49.964;7.890;2023-06-19T05:54:43;4.68;;;3.30;;
15295;SDS011;7749;49.964;7.890;2023-06-19T05:57:10;3.75;;;3.40;;
15295;SDS011;7749;49.964;7.890;2023-06-19T05:59:38;3.63;;;3.33;;
15295;SDS011;7749;49.964;7.890;2023-06-19T06:02:06;3.53;;;3.22;;
15295;SDS011;7749;49.964;7.890;2023-06-19T06:04:33;3.50;;;3.20;;
15295;SDS011;7749;49.964;7.890;2023-06-19T06:07:02;3.65;;;3.33;;
15295;SDS011;7749;49.964;7.890;2023-06-19T06:09:29;4.03;;;3.25;;
15295;SDS011;7749;49.964;7.890;2023-06-19T06:11:57;4.15;;;3.28;;
15295;SDS011;7749;49.964;7.890;2023-06-19T06:14:25;3.90;;;3.60;;
15295;SDS011;7749;49.964;7.890;2023-06-19T06:16:53;4.45;;;2.95;;
15295;SDS011;7749;49.964;7.890;2023-06-19T06:19:20;5.05;;;3.22;;
15295;SDS011;7749;49.964;7.890;2023-06-19T06:21:51;3.60;;;3.30;;
15295;SDS011;7749;49.964;7.890;2023-06-19T06:24:19;3.25;;;2.90;;
15295;SDS011;7749;49.964;7.890;2023-06-19T06:26:46;3.45;;;2.88;;
15295;SDS011;7749;49.964;7.890;2023-06-19T06:29:14;3.08;;;2.88;;
15295;SDS011;7749;49.964;7.890;2023-06-19T06:31:41;5.57;;;2.60;;
15295;SDS011;7749;49.964;7.890;2023-06-19T06:34:09;3.17;;;2.85;;
15295;SDS011;7749;49.964;7.890;2023-06-19T06:36:37;4.28;;;2.50;;
15295;SDS011;7749;49.964;7.890;2023-06-19T06:39:12;3.42;;;3.00;;
15295;SDS011;7749;49.964;7.890;2023-06-19T06:41:40;2.92;;;2.72;;
15295;SDS011;7749;49.964;7.890;2023-06-19T06:44:07;3.20;;;2.90;;
15295;SDS011;7749;49.964;7.890;2023-06-19T06:46:34;3.88;;;3.22;;
15295;SDS011;7749;49.964;7.890;2023-06-19T06:49:02;2.80;;;2.60;;
15295;SDS011;7749;49.964;7.890;2023-06-19T06:51:31;3.55;;;3.10;;
15295;SDS011;7749;49.964;7.890;2023-06-19T06:53:58;4.57;;;3.13;;
15295;SDS011;7749;49.964;7.890;2023-06-19T06:56:26;3.40;;;3.10;;
15295;SDS011;7749;49.964;7.890;2023-06-19T06:58:53;3.85;;;3.55;;
15295;SDS011;7749;49.964;7.890;2023-06-19T07:01:21;3.55;;;3.25;;
15295;SDS011;7749;49.964;7.890;2023-06-19T07:03:48;5.55;;;3.20;;
15295;SDS011;7749;49.964;7.890;2023-06-19T07:06:16;3.47;;;3.17;;
15295;SDS011;7749;49.964;7.890;2023-06-19T07:08:43;3.65;;;3.20;;
15295;SDS011;7749;49.964;7.890;2023-06-19T07:11:14;3.92;;;3.10;;
15295;SDS011;7749;49.964;7.890;2023-06-19T07:13:41;4.35;;;3.10;;
15295;SDS011;7749;49.964;7.890;2023-06-19T07:16:09;3.22;;;2.92;;
15295;SDS011;7749;49.964;7.890;2023-06-19T07:18:36;5.55;;;3.60;;
15295;SDS011;7749;49.964;7.890;2023-06-19T07:21:06;3.63;;;3.30;;
15295;SDS011;7749;49.964;7.890;2023-06-19T07:23:42;3.83;;;3.42;;
15295;SDS011;7749;49.964;7.890;2023-06-19T07:26:12;4.07;;;3.67;;
15295;SDS011;7749;49.964;7.890;2023-06-19T07:28:40;3.17;;;2.88;;
15295;SDS011;7749;49.964;7.890;2023-06-19T07:31:08;3.28;;;2.97;;
15295;SDS011;7749;49.964;7.890;2023-06-19T07:33:35;3.55;;;3.25;;
15295;SDS011;7749;49.964;7.890;2023-06-19T07:36:03;3.20;;;3.00;;
15295;SDS011;7749;49.964;7.890;2023-06-19T07:38:31;4.47;;;3.20;;
15295;SDS011;7749;49.964;7.890;2023-06-19T07:40:58;2.90;;;2.70;;
15295;SDS011;7749;49.964;7.890;2023-06-19T07:43:26;3.80;;;3.50;;
15295;SDS011;7749;49.964;7.890;2023-06-19T07:45:53;4.47;;;3.72;;
15295;SDS011;7749;49.964;7.890;2023-06-19T07:48:21;5.00;;;3.30;;
15295;SDS011;7749;49.964;7.890;2023-06-19T07:50:50;3.55;;;3.25;;
15295;SDS011;7749;49.964;7.890;2023-06-19T07:53:18;3.67;;;3.38;;
15295;SDS011;7749;49.964;7.890;2023-06-19T07:55:46;4.03;;;3.10;;
15295;SDS011;7749;49.964;7.890;2023-06-19T07:58:14;3.60;;;3.30;;
15295;SDS011;7749;49.964;7.890;2023-06-19T08:00:41;3.75;;;3.45;;
15295;SDS011;7749;49.964;7.890;2023-06-19T08:03:09;3.95;;;3.50;;
15295;SDS011;7749;49.964;7.890;2023-06-19T08:05:36;4.75;;;3.28;;
15295;SDS011;7749;49.964;7.890;2023-06-19T08:08:04;4.63;;;3.45;;
15295;SDS011;7749;49.964;7.890;2023-06-19T08:10:31;3.45;;;3.10;;
15295;SDS011;7749;49.964;7.890;2023-06-19T08:12:59;3.70;;;3.40;;
15295;SDS011;7749;49.964;7.890;2023-06-19T08:15:26;3.75;;;3.38;;
15295;SDS011;7749;49.964;7.890;2023-06-19T08:17:55;6.38;;;3.75;;
15295;SDS011;7749;49.964;7.890;2023-06-19T08:20:23;3.45;;;2.80;;
15295;SDS011;7749;49.964;7.890;2023-06-19T08:22:51;4.85;;;3.10;;
15295;SDS011;7749;49.964;7.890;2023-06-19T08:25:18;3.50;;;3.20;;
15295;SDS011;7749;49.964;7.890;2023-06-19T08:27:46;5.40;;;3.50;;
15295;SDS011;7749;49.964;7.890;2023-06-19T08:30:14;4.75;;;3.42;;
15295;SDS011;7749;49.964;7.890;2023-06-19T08:32:42;3.90;;;3.13;;
15295;SDS011;7749;49.964;7.890;2023-06-19T08:35:11;3.88;;;3.33;;
15295;SDS011;7749;49.964;7.890;2023-06-19T08:37:38;3.55;;;3.25;;
15295;SDS011;7749;49.964;7.890;2023-06-19T08:40:06;4.68;;;3.13;;
15295;SDS011;7749;49.964;7.890;2023-06-19T08:42:36;3.13;;;2.88;;
15295;SDS011;7749;49.964;7.890;2023-06-19T08:45:05;3.80;;;3.00;;
15295;SDS011;7749;49.964;7.890;2023-06-19T08:47:33;3.80;;;3.38;;
15295;SDS011;7749;49.964;7.890;2023-06-19T08:50:01;3.65;;;3.15;;
15295;SDS011;7749;49.964;7.890;2023-06-19T08:52:29;4.00;;;3.28;;
15295;SDS011;7749;49.964;7.890;2023-06-19T08:54:57;6.70;;;3.65;;
15295;SDS011;7749;49.964;7.890;2023-06-19T08:57:34;3.67;;;3.38;;
15295;SDS011;7749;49.964;7.890;2023-06-19T09:00:07;3.58;;;3.28;;
15295;SDS011;7749;49.964;7.890;2023-06-19T09:02:40;3.22;;;3.03;;
15295;SDS011;7749;49.964;7.890;2023-06-19T09:05:14;3.30;;;2.70;;
15295;SDS011;7749;49.964;7.890;2023-06-19T09:07:44;2.90;;;2.70;;
15295;SDS011;7749;49.964;7.890;2023-06-19T09:10:20;3.47;;;3.17;;
15295;SDS011;7749;49.964;7.890;2023-06-19T09:15:29;2.95;;;2.75;;
15295;SDS011;7749;49.964;7.890;2023-06-19T09:18:00;3.30;;;2.80;;
15295;SDS011;7749;49.964;7.890;2023-06-19T09:20:44;3.28;;;2.75;;
15295;SDS011;7749;49.964;7.890;2023-06-19T09:23:12;3.88;;;2.70;;
15295;SDS011;7749;49.964;7.890;2023-06-19T09:28:23;3.70;;;3.15;;
15295;SDS011;7749;49.964;7.890;2023-06-19T09:30:53;3.45;;;3.25;;
15295;SDS011;7749;49.964;7.890;2023-06-19T09:33:22;2.97;;;2.70;;
15295;SDS011;7749;49.964;7.890;2023-06-19T09:35:50;3.33;;;3.03;;
15295;SDS011;7749;49.964;7.890;2023-06-19T09:38:18;3.13;;;2.83;;
15295;SDS011;7749;49.964;7.890;2023-06-19T09:40:48;3.33;;;3.03;;
15295;SDS011;7749;49.964;7.890;2023-06-19T09:43:19;3.10;;;2.90;;
15295;SDS011;7749;49.964;7.890;2023-06-19T09:45:53;4.38;;;3.17;;
15295;SDS011;7749;49.964;7.890;2023-06-19T09:48:26;3.20;;;2.95;;
15295;SDS011;7749;49.964;7.890;2023-06-19T09:51:09;3.88;;;2.90;;
15295;SDS011;7749;49.964;7.890;2023-06-19T09:53:48;3.63;;;2.85;;
15295;SDS011;7749;49.964;7.890;2023-06-19T09:56:16;3.28;;;2.97;;
15295;SDS011;7749;49.964;7.890;2023-06-19T09:58:49;4.20;;;3.10;;
15295;SDS011;7749;49.964;7.890;2023-06-19T10:01:19;4.13;;;3.65;;
15295;SDS011;7749;49.964;7.890;2023-06-19T10:03:47;3.05;;;2.75;;
15295;SDS011;7749;49.964;7.890;2023-06-19T10:06:16;3.78;;;3.20;;
15295;SDS011;7749;49.964;7.890;2023-06-19T10:08:44;3.65;;;3.35;;
15295;SDS011;7749;49.964;7.890;2023-06-19T10:11:12;3.40;;;3.17;;
15295;SDS011;7749;49.964;7.890;2023-06-19T10:13:41;3.25;;;2.95;;
15295;SDS011;7749;49.964;7.890;2023-06-19T10:16:21;3.33;;;3.00;;
15295;SDS011;7749;49.964;7.890;2023-06-19T10:18:50;3.63;;;3.33;;
15295;SDS011;7749;49.964;7.890;2023-06-19T10:21:18;3.28;;;2.95;;
15295;SDS011;7749;49.964;7.890;2023-06-19T10:23:53;3.50;;;3.20;;
15295;SDS011;7749;49.964;7.890;2023-06-19T10:26:29;3.88;;;3.58;;
15295;SDS011;7749;49.964;7.890;2023-06-19T10:28:58;4.45;;;3.40;;
15295;SDS011;7749;49.964;7.890;2023-06-19T10:31:26;4.28;;;3.60;;
15295;SDS011;7749;49.964;7.890;2023-06-19T10:33:55;3.55;;;3.25;;
15295;SDS011;7749;49.964;7.890;2023-06-19T10:36:23;5.35;;;3.40;;
15295;SDS011;7749;49.964;7.890;2023-06-19T10:38:52;3.30;;;3.00;;
15295;SDS011;7749;49.964;7.890;2023-06-19T10:41:22;3.83;;;3.05;;
15295;SDS011;7749;49.964;7.890;2023-06-19T10:43:52;3.40;;;3.03;;
15295;SDS011;7749;49.964;7.890;2023-06-19T10:46:34;3.25;;;2.85;;
15295;SDS011;7749;49.964;7.890;2023-06-19T10:49:03;4.47;;;3.40;;
15295;SDS011;7749;49.964;7.890;2023-06-19T10:51:34;3.47;;;3.15;;
15295;SDS011;7749;49.964;7.890;2023-06-19T10:54:06;4.20;;;3.55;;
15295;SDS011;7749;49.964;7.890;2023-06-19T10:56:34;3.30;;;3.10;;
15295;SDS011;7749;49.964;7.890;2023-06-19T10:59:04;4.30;;;2.72;;
15295;SDS011;7749;49.964;7.890;2023-06-19T11:04:05;3.42;;;3.17;;
15295;SDS011;7749;49.964;7.890;2023-06-19T11:06:34;3.40;;;2.72;;
15295;SDS011;7749;49.964;7.890;2023-06-19T11:09:03;3.40;;;3.10;;
15295;SDS011;7749;49.964;7.890;2023-06-19T11:11:35;4.20;;;3.08;;
15295;SDS011;7749;49.964;7.890;2023-06-19T11:14:14;5.05;;;3.00;;
15295;SDS011;7749;49.964;7.890;2023-06-19T11:16:44;3.58;;;2.95;;
15295;SDS011;7749;49.964;7.890;2023-06-19T11:19:17;3.13;;;2.88;;
15295;SDS011;7749;49.964;7.890;2023-06-19T11:21:50;3.00;;;2.80;;
15295;SDS011;7749;49.964;7.890;2023-06-19T11:24:19;4.03;;;2.70;;
15295;SDS011;7749;49.964;7.890;2023-06-19T11:26:49;6.97;;;3.05;;
15295;SDS011;7749;49.964;7.890;2023-06-19T11:29:22;4.25;;;2.90;;
15295;SDS011;7749;49.964;7.890;2023-06-19T11:32:05;7.28;;;3.05;;
15295;SDS011;7749;49.964;7.890;2023-06-19T11:34:34;3.15;;;2.90;;
15295;SDS011;7749;49.964;7.890;2023-06-19T11:39:45;4.32;;;3.15;;
15295;SDS011;7749;49.964;7.890;2023-06-19T11:42:17;5.35;;;3.38;;
15295;SDS011;7749;49.964;7.890;2023-06-19T11:44:54;3.88;;;3.58;;
15295;SDS011;7749;49.964;7.890;2023-06-19T11:47:33;3.90;;;3.60;;
15295;SDS011;7749;49.964;7.890;2023-06-19T11:50:03;3.95;;;3.70;;
15295;SDS011;7749;49.964;7.890;2023-06-19T11:52:31;3.85;;;3.40;;
15295;SDS011;7749;49.964;7.890;2023-06-19T11:54:59;5.35;;;3.30;;
15295;SDS011;7749;49.964;7.890;2023-06-19T11:57:27;3.97;;;3.15;;
15295;SDS011;7749;49.964;7.890;2023-06-19T11:59:54;3.70;;;3.50;;
15295;SDS011;7749;49.964;7.890;2023-06-19T12:02:22;3.75;;;3.45;;
15295;SDS011;7749;49.964;7.890;2023-06-19T12:04:50;3.88;;;3.58;;
15295;SDS011;7749;49.964;7.890;2023-06-19T12:07:18;3.58;;;3.28;;
15295;SDS011;7749;49.964;7.890;2023-06-19T12:09:46;3.50;;;3.30;;
15295;SDS011;7749;49.964;7.890;2023-06-19T12:12:13;3.58;;;3.38;;
15295;SDS011;7749;49.964;7.890;2023-06-19T12:14:41;3.55;;;3.35;;
15295;SDS011;7749;49.964;7.890;2023-06-19T12:17:10;3.78;;;3.58;;
15295;SDS011;7749;49.964;7.890;2023-06-19T12:19:38;3.55;;;3.35;;
15295;SDS011;7749;49.964;7.890;2023-06-19T12:22:05;3.45;;;3.20;;
15295;SDS011;7749;49.964;7.890;2023-06-19T12:24:32;3.33;;;3.13;;
15295;SDS011;7749;49.964;7.890;2023-06-19T12:27:00;3.50;;;3.20;;
15295;SDS011;7749;49.964;7.890;2023-06-19T12:29:28;3.65;;;3.35;;
15295;SDS011;7749;49.964;7.890;2023-06-19T12:32:02;3.33;;;3.03;;
15295;SDS011;7749;49.964;7.890;2023-06-19T12:34:31;3.67;;;3.38;;
15295;SDS011;7749;49.964;7.890;2023-06-19T12:36:59;3.58;;;3.28;;
15295;SDS011;7749;49.964;7.890;2023-06-19T12:39:26;3.65;;;3.42;;
15295;SDS011;7749;49.964;7.890;2023-06-19T12:41:54;3.70;;;3.40;;
15295;SDS011;7749;49.964;7.890;2023-06-19T12:44:21;3.35;;;3.15;;
15295;SDS011;7749;49.964;7.890;2023-06-19T12:46:50;3.58;;;3.30;;
15295;SDS011;7749;49.964;7.890;2023-06-19T12:49:17;4.10;;;3.80;;
15295;SDS011;7749;49.964;7.890;2023-06-19T12:51:45;7.43;;;3.75;;
15295;SDS011;7749;49.964;7.890;2023-06-19T12:54:15;4.22;;;3.83;;
15295;SDS011;7749;49.964;7.890;2023-06-19T12:56:43;3.95;;;3.33;;
15295;SDS011;7749;49.964;7.890;2023-06-19T12:59:11;4.72;;;3.08;;
15295;SDS011;7749;49.964;7.890;2023-06-19T13:01:39;4.43;;;3.00;;
15295;SDS011;7749;49.964;7.890;2023-06-19T13:04:07;3.42;;;3.22;;
15295;SDS011;7749;49.964;7.890;2023-06-19T13:06:38;3.42;;;3.05;;
15295;SDS011;7749;49.964;7.890;2023-06-19T13:09:05;4.53;;;3.45;;
15295;SDS011;7749;49.964;7.890;2023-06-19T13:11:34;5.95;;;5.45;;
15295;SDS011;7749;49.964;7.890;2023-06-19T13:14:01;3.63;;;3.33;;
15295;SDS011;7749;49.964;7.890;2023-06-19T13:16:30;3.75;;;3.42;;
15295;SDS011;7749;49.964;7.890;2023-06-19T13:19:15;3.40;;;3.20;;
15295;SDS011;7749;49.964;7.890;2023-06-19T13:21:43;4.07;;;3.53;;
15295;SDS011;7749;49.964;7.890;2023-06-19T13:24:10;3.17;;;2.97;;
15295;SDS011;7749;49.964;7.890;2023-06-19T13:26:39;4.25;;;3.85;;
15295;SDS011;7749;49.964;7.890;2023-06-19T13:29:06;3.60;;;3.30;;
15295;SDS011;7749;49.964;7.890;2023-06-19T13:31:34;3.80;;;3.45;;
15295;SDS011;7749;49.964;7.890;2023-06-19T13:34:01;3.58;;;3.38;;
15295;SDS011;7749;49.964;7.890;2023-06-19T13:36:29;3.60;;;3.20;;
15295;SDS011;7749;49.964;7.890;2023-06-19T13:38:57;3.45;;;3.25;;
15295;SDS011;7749;49.964;7.890;2023-06-19T13:41:25;3.83;;;3.53;;
15295;SDS011;7749;49.964;7.890;2023-06-19T13:43:53;3.50;;;3.20;;
15295;SDS011;7749;49.964;7.890;2023-06-19T13:46:21;3.42;;;3.13;;
15295;SDS011;7749;49.964;7.890;2023-06-19T13:48:49;4.03;;;3.58;;
15295;SDS011;7749;49.964;7.890;2023-06-19T13:51:19;3.08;;;2.70;;
15295;SDS011;7749;49.964;7.890;2023-06-19T13:53:50;3.08;;;2.83;;
15295;SDS011;7749;49.964;7.890;2023-06-19T13:56:18;3.33;;;2.70;;
15295;SDS011;7749;49.964;7.890;2023-06-19T13:58:46;3.13;;;2.92;;
15295;SDS011;7749;49.964;7.890;2023-06-19T14:01:14;4.35;;;3.38;;
15295;SDS011;7749;49.964;7.890;2023-06-19T14:03:42;3.63;;;3.38;;
15295;SDS011;7749;49.964;7.890;2023-06-19T14:06:10;3.55;;;3.35;;
15295;SDS011;7749;49.964;7.890;2023-06-19T14:08:39;3.92;;;3.63;;
15295;SDS011;7749;49.964;7.890;2023-06-19T14:11:07;3.30;;;3.00;;
15295;SDS011;7749;49.964;7.890;2023-06-19T14:13:34;2.90;;;2.70;;
15295;SDS011;7749;49.964;7.890;2023-06-19T14:16:02;4.50;;;3.10;;
15295;SDS011;7749;49.964;7.890;2023-06-19T14:18:30;3.30;;;2.90;;
15295;SDS011;7749;49.964;7.890;2023-06-19T14:20:57;2.90;;;2.70;;
15295;SDS011;7749;49.964;7.890;2023-06-19T14:23:25;3.10;;;2.90;;
15295;SDS011;7749;49.964;7.890;2023-06-19T14:25:52;4.32;;;2.55;;
15295;SDS011;7749;49.964;7.890;2023-06-19T14:28:19;3.05;;;2.58;;
15295;SDS011;7749;49.964;7.890;2023-06-19T14:30:47;2.78;;;2.58;;
15295;SDS011;7749;49.964;7.890;2023-06-19T14:33:15;2.83;;;2.60;;
15295;SDS011;7749;49.964;7.890;2023-06-19T14:35:43;2.95;;;2.40;;
15295;SDS011;7749;49.964;7.890;2023-06-19T14:38:18;3.95;;;2.75;;
15295;SDS011;7749;49.964;7.890;2023-06-19T14:40:46;3.58;;;2.70;;
15295;SDS011;7749;49.964;7.890;2023-06-19T14:43:13;2.88;;;2.58;;
15295;SDS011;7749;49.964;7.890;2023-06-19T14:45:41;2.70;;;2.50;;
15295;SDS011;7749;49.964;7.890;2023-06-19T14:48:09;2.58;;;2.38;;
15295;SDS011;7749;49.964;7.890;2023-06-19T14:50:37;4.53;;;2.70;;
15295;SDS011;7749;49.964;7.890;2023-06-19T14:53:05;2.58;;;2.38;;
15295;SDS011;7749;49.964;7.890;2023-06-19T14:55:32;3.00;;;2.80;;
15295;SDS011;7749;49.964;7.890;2023-06-19T14:58:00;3.22;;;2.58;;
15295;SDS011;7749;49.964;7.890;2023-06-19T15:00:27;4.18;;;2.80;;
15295;SDS011;7749;49.964;7.890;2023-06-19T15:02:54;2.60;;;2.40;;
15295;SDS011;7749;49.964;7.890;2023-06-19T15:05:22;2.97;;;2.75;;
15295;SDS011;7749;49.964;7.890;2023-06-19T15:07:49;3.35;;;2.47;;
15295;SDS011;7749;49.964;7.890;2023-06-19T15:10:17;2.88;;;2.58;;
15295;SDS011;7749;49.964;7.890;2023-06-19T15:12:44;2.53;;;2.33;;
15295;SDS011;7749;49.964;7.890;2023-06-19T15:15:12;2.30;;;2.10;;
15295;SDS011;7749;49.964;7.890;2023-06-19T15:17:39;2.92;;;2.60;;
15295;SDS011;7749;49.964;7.890;2023-06-19T15:20:07;4.90;;;2.92;;
15295;SDS011;7749;49.964;7.890;2023-06-19T15:22:35;4.43;;;2.72;;
15295;SDS011;7749;49.964;7.890;2023-06-19T15:25:06;3.38;;;2.53;;